sensor_id;sensor_type;location;lat;lon;timestamp;temperature;humidity
16114;DHT22;8161;-33.910;151.156;2024-01-30T00:01:02;26.90;99.90
16114;DHT22;8161;-33.910;151.156;2024-01-30T00:03:29;26.90;99.90
16114;DHT22;8161;-33.910;151.156;2024-01-30T00:05:56;26.90;99.90
16114;DHT22;8161;-33.910;151.156;2024-01-30T00:08:24;26.90;99.90
16114;DHT22;8161;-33.910;151.156;2024-01-30T00:10:51;26.90;99.90
16114;DHT22;8161;-33.910;151.156;2024-01-30T00:13:18;26.80;99.90
16114;DHT22;8161;-33.910;151.156;2024-01-30T00:15:46;26.70;99.90
16114;DHT22;8161;-33.910;151.156;2024-01-30T00:18:18;26.50;99.90
16114;DHT22;8161;-33.910;151.156;2024-01-30T00:20:46;26.30;99.90
16114;DHT22;8161;-33.910;151.156;2024-01-30T00:23:13;26.30;99.90
16114;DHT22;8161;-33.910;151.156;2024-01-30T00:25:41;26.40;99.90
16114;DHT22;8161;-33.910;151.156;2024-01-30T00:28:08;26.30;99.90
16114;DHT22;8161;-33.910;151.156;2024-01-30T00:30:35;26.40;99.90
16114;DHT22;8161;-33.910;151.156;2024-01-30T00:33:03;26.50;99.90
16114;DHT22;8161;-33.910;151.156;2024-01-30T00:35:30;26.50;99.90
16114;DHT22;8161;-33.910;151.156;2024-01-30T00:37:57;26.80;99.90
16114;DHT22;8161;-33.910;151.156;2024-01-30T00:40:24;26.30;99.90
16114;DHT22;8161;-33.910;151.156;2024-01-30T00:42:52;26.40;99.90
16114;DHT22;8161;-33.910;151.156;2024-01-30T00:45:19;26.40;99.90
16114;DHT22;8161;-33.910;151.156;2024-01-30T00:47:46;26.30;99.90
16114;DHT22;8161;-33.910;151.156;2024-01-30T00:50:14;26.40;99.90
16114;DHT22;8161;-33.910;151.156;2024-01-30T00:52:41;26.50;99.90
16114;DHT22;8161;-33.910;151.156;2024-01-30T00:55:11;26.60;99.90
16114;DHT22;8161;-33.910;151.156;2024-01-30T00:57:39;26.60;99.90
16114;DHT22;8161;-33.910;151.156;2024-01-30T01:00:07;26.60;99.90
16114;DHT22;8161;-33.910;151.156;2024-01-30T01:02:36;26.70;99.90
16114;DHT22;8161;-33.910;151.156;2024-01-30T01:05:03;26.70;99.90
16114;DHT22;8161;-33.910;151.156;2024-01-30T01:07:31;26.80;99.90
16114;DHT22;8161;-33.910;151.156;2024-01-30T01:09:58;26.90;99.90
16114;DHT22;8161;-33.910;151.156;2024-01-30T01:12:26;27.10;99.90
16114;DHT22;8161;-33.910;151.156;2024-01-30T01:14:53;27.30;99.90
16114;DHT22;8161;-33.910;151.156;2024-01-30T01:17:21;27.80;99.90
16114;DHT22;8161;-33.910;151.156;2024-01-30T01:19:49;27.80;99.90
16114;DHT22;8161;-33.910;151.156;2024-01-30T01:22:16;28.00;99.90
16114;DHT22;8161;-33.910;151.156;2024-01-30T01:24:44;28.00;99.90
16114;DHT22;8161;-33.910;151.156;2024-01-30T01:27:12;28.10;99.90
16114;DHT22;8161;-33.910;151.156;2024-01-30T01:29:39;28.10;99.90
16114;DHT22;8161;-33.910;151.156;2024-01-30T01:32:06;28.10;99.90
16114;DHT22;8161;-33.910;151.156;2024-01-30T01:34:33;28.20;99.90
16114;DHT22;8161;-33.910;151.156;2024-01-30T01:37:01;28.30;99.90
16114;DHT22;8161;-33.910;151.156;2024-01-30T01:39:28;28.40;99.90
16114;DHT22;8161;-33.910;151.156;2024-01-30T01:41:55;28.50;99.90
16114;DHT22;8161;-33.910;151.156;2024-01-30T01:44:22;28.60;99.90
16114;DHT22;8161;-33.910;151.156;2024-01-30T01:46:50;28.60;99.90
16114;DHT22;8161;-33.910;151.156;2024-01-30T01:49:18;28.60;99.90
16114;DHT22;8161;-33.910;151.156;2024-01-30T01:51:47;28.60;99.90
16114;DHT22;8161;-33.910;151.156;2024-01-30T01:54:15;28.40;99.90
16114;DHT22;8161;-33.910;151.156;2024-01-30T01:56:43;28.00;99.90
16114;DHT22;8161;-33.910;151.156;2024-01-30T01:59:10;27.90;99.90
16114;DHT22;8161;-33.910;151.156;2024-01-30T02:01:38;27.80;99.90
16114;DHT22;8161;-33.910;151.156;2024-01-30T02:04:08;27.60;99.90
16114;DHT22;8161;-33.910;151.156;2024-01-30T02:06:35;27.60;99.90
16114;DHT22;8161;-33.910;151.156;2024-01-30T02:09:06;27.60;99.90
16114;DHT22;8161;-33.910;151.156;2024-01-30T02:11:33;27.50;99.90
16114;DHT22;8161;-33.910;151.156;2024-01-30T02:14:05;27.50;99.90
16114;DHT22;8161;-33.910;151.156;2024-01-30T02:16:32;27.50;99.90
16114;DHT22;8161;-33.910;151.156;2024-01-30T02:19:00;27.50;99.90
16114;DHT22;8161;-33.910;151.156;2024-01-30T02:21:27;27.50;99.90
16114;DHT22;8161;-33.910;151.156;2024-01-30T02:23:55;27.50;99.90
16114;DHT22;8161;-33.910;151.156;2024-01-30T02:26:22;27.50;99.90
16114;DHT22;8161;-33.910;151.156;2024-01-30T02:28:50;27.70;99.90
16114;DHT22;8161;-33.910;151.156;2024-01-30T02:31:17;27.80;99.90
16114;DHT22;8161;-33.910;151.156;2024-01-30T02:33:44;27.80;99.90
16114;DHT22;8161;-33.910;151.156;2024-01-30T02:36:11;27.90;99.90
16114;DHT22;8161;-33.910;151.156;2024-01-30T02:38:39;27.90;99.90
16114;DHT22;8161;-33.910;151.156;2024-01-30T02:41:06;28.30;99.90
16114;DHT22;8161;-33.910;151.156;2024-01-30T02:43:33;28.50;99.90
16114;DHT22;8161;-33.910;151.156;2024-01-30T02:46:00;28.70;99.90
16114;DHT22;8161;-33.910;151.156;2024-01-30T02:48:28;28.80;99.90
16114;DHT22;8161;-33.910;151.156;2024-01-30T02:50:55;28.80;99.90
16114;DHT22;8161;-33.910;151.156;2024-01-30T02:53:23;28.80;99.90
16114;DHT22;8161;-33.910;151.156;2024-01-30T02:55:51;28.80;99.90
16114;DHT22;8161;-33.910;151.156;2024-01-30T02:58:18;28.80;99.90
16114;DHT22;8161;-33.910;151.156;2024-01-30T03:00:45;28.70;99.90
16114;DHT22;8161;-33.910;151.156;2024-01-30T03:03:13;28.70;99.90
16114;DHT22;8161;-33.910;151.156;2024-01-30T03:05:40;28.80;99.90
16114;DHT22;8161;-33.910;151.156;2024-01-30T03:08:07;28.70;99.90
16114;DHT22;8161;-33.910;151.156;2024-01-30T03:10:34;28.70;99.90
16114;DHT22;8161;-33.910;151.156;2024-01-30T03:13:02;28.70;99.90
16114;DHT22;8161;-33.910;151.156;2024-01-30T03:15:29;28.70;99.90
16114;DHT22;8161;-33.910;151.156;2024-01-30T03:17:56;28.70;99.90
16114;DHT22;8161;-33.910;151.156;2024-01-30T03:20:24;28.70;99.90
16114;DHT22;8161;-33.910;151.156;2024-01-30T03:22:51;28.60;99.90
16114;DHT22;8161;-33.910;151.156;2024-01-30T03:25:18;28.60;99.90
16114;DHT22;8161;-33.910;151.156;2024-01-30T03:27:45;28.60;99.90
16114;DHT22;8161;-33.910;151.156;2024-01-30T03:30:13;28.60;99.90
16114;DHT22;8161;-33.910;151.156;2024-01-30T03:32:40;28.60;99.90
16114;DHT22;8161;-33.910;151.156;2024-01-30T03:35:07;28.40;99.90
16114;DHT22;8161;-33.910;151.156;2024-01-30T03:37:35;28.40;99.90
16114;DHT22;8161;-33.910;151.156;2024-01-30T03:40:03;28.40;99.90
16114;DHT22;8161;-33.910;151.156;2024-01-30T03:42:30;28.40;99.90
16114;DHT22;8161;-33.910;151.156;2024-01-30T03:44:58;28.40;99.90
16114;DHT22;8161;-33.910;151.156;2024-01-30T03:47:25;28.40;99.90
16114;DHT22;8161;-33.910;151.156;2024-01-30T03:49:52;28.30;99.90
16114;DHT22;8161;-33.910;151.156;2024-01-30T03:52:19;28.40;99.90
16114;DHT22;8161;-33.910;151.156;2024-01-30T03:54:47;28.40;99.90
16114;DHT22;8161;-33.910;151.156;2024-01-30T03:57:14;28.30;99.90
16114;DHT22;8161;-33.910;151.156;2024-01-30T03:59:44;28.30;99.90
16114;DHT22;8161;-33.910;151.156;2024-01-30T04:02:11;28.30;99.90
16114;DHT22;8161;-33.910;151.156;2024-01-30T04:04:39;28.30;99.90
16114;DHT22;8161;-33.910;151.156;2024-01-30T04:07:06;28.30;99.90
16114;DHT22;8161;-33.910;151.156;2024-01-30T04:09:33;28.60;99.90
16114;DHT22;8161;-33.910;151.156;2024-01-30T04:12:01;28.80;99.90
16114;DHT22;8161;-33.910;151.156;2024-01-30T04:14:29;29.00;99.90
16114;DHT22;8161;-33.910;151.156;2024-01-30T04:16:56;29.40;99.90
16114;DHT22;8161;-33.910;151.156;2024-01-30T04:21:51;29.50;99.90
16114;DHT22;8161;-33.910;151.156;2024-01-30T04:24:18;29.50;99.90
16114;DHT22;8161;-33.910;151.156;2024-01-30T04:26:45;29.50;99.90
16114;DHT22;8161;-33.910;151.156;2024-01-30T04:29:12;29.50;99.90
16114;DHT22;8161;-33.910;151.156;2024-01-30T04:31:40;29.50;99.90
16114;DHT22;8161;-33.910;151.156;2024-01-30T04:34:07;29.30;99.90
16114;DHT22;8161;-33.910;151.156;2024-01-30T04:36:34;29.20;99.90
16114;DHT22;8161;-33.910;151.156;2024-01-30T04:39:01;29.20;99.90
16114;DHT22;8161;-33.910;151.156;2024-01-30T04:41:30;29.10;99.90
16114;DHT22;8161;-33.910;151.156;2024-01-30T04:43:58;29.00;99.90
16114;DHT22;8161;-33.910;151.156;2024-01-30T04:46:26;29.00;99.90
16114;DHT22;8161;-33.910;151.156;2024-01-30T04:48:53;29.00;99.90
16114;DHT22;8161;-33.910;151.156;2024-01-30T04:51:20;28.90;99.90
16114;DHT22;8161;-33.910;151.156;2024-01-30T04:53:47;28.90;99.90
16114;DHT22;8161;-33.910;151.156;2024-01-30T04:56:15;29.00;99.90
16114;DHT22;8161;-33.910;151.156;2024-01-30T04:58:42;29.10;99.90
16114;DHT22;8161;-33.910;151.156;2024-01-30T05:01:09;29.30;99.90
16114;DHT22;8161;-33.910;151.156;2024-01-30T05:03:36;29.30;99.90
16114;DHT22;8161;-33.910;151.156;2024-01-30T05:06:04;29.40;99.90
16114;DHT22;8161;-33.910;151.156;2024-01-30T05:08:31;29.60;99.90
16114;DHT22;8161;-33.910;151.156;2024-01-30T05:11:02;29.70;99.90
16114;DHT22;8161;-33.910;151.156;2024-01-30T05:13:33;29.80;99.90
16114;DHT22;8161;-33.910;151.156;2024-01-30T05:16:02;30.00;99.90
16114;DHT22;8161;-33.910;151.156;2024-01-30T05:20:57;30.60;99.90
16114;DHT22;8161;-33.910;151.156;2024-01-30T05:23:24;30.80;99.90
16114;DHT22;8161;-33.910;151.156;2024-01-30T05:25:52;31.00;99.90
16114;DHT22;8161;-33.910;151.156;2024-01-30T05:28:19;31.30;99.90
16114;DHT22;8161;-33.910;151.156;2024-01-30T05:30:46;31.60;99.90
16114;DHT22;8161;-33.910;151.156;2024-01-30T05:33:14;31.90;99.90
16114;DHT22;8161;-33.910;151.156;2024-01-30T05:35:41;32.20;99.90
16114;DHT22;8161;-33.910;151.156;2024-01-30T05:38:08;32.40;99.90
16114;DHT22;8161;-33.910;151.156;2024-01-30T05:40:35;32.60;99.90
16114;DHT22;8161;-33.910;151.156;2024-01-30T05:43:03;32.70;99.90
16114;DHT22;8161;-33.910;151.156;2024-01-30T05:45:30;32.90;99.90
16114;DHT22;8161;-33.910;151.156;2024-01-30T05:47:57;33.00;99.90
16114;DHT22;8161;-33.910;151.156;2024-01-30T05:50:25;33.30;99.90
16114;DHT22;8161;-33.910;151.156;2024-01-30T05:52:53;33.30;99.90
16114;DHT22;8161;-33.910;151.156;2024-01-30T05:55:20;33.30;99.90
16114;DHT22;8161;-33.910;151.156;2024-01-30T05:57:47;33.40;99.90
16114;DHT22;8161;-33.910;151.156;2024-01-30T06:00:15;33.50;99.90
16114;DHT22;8161;-33.910;151.156;2024-01-30T06:02:42;33.60;99.90
16114;DHT22;8161;-33.910;151.156;2024-01-30T06:05:09;33.70;99.90
16114;DHT22;8161;-33.910;151.156;2024-01-30T06:07:37;33.70;99.90
16114;DHT22;8161;-33.910;151.156;2024-01-30T06:10:04;33.60;99.90
16114;DHT22;8161;-33.910;151.156;2024-01-30T06:12:32;33.40;99.90
16114;DHT22;8161;-33.910;151.156;2024-01-30T06:14:59;33.50;99.90
16114;DHT22;8161;-33.910;151.156;2024-01-30T06:17:26;33.40;99.90
16114;DHT22;8161;-33.910;151.156;2024-01-30T06:19:53;33.00;99.90
16114;DHT22;8161;-33.910;151.156;2024-01-30T06:22:21;32.60;99.90
16114;DHT22;8161;-33.910;151.156;2024-01-30T06:24:48;32.20;99.90
16114;DHT22;8161;-33.910;151.156;2024-01-30T06:27:15;31.70;99.90
16114;DHT22;8161;-33.910;151.156;2024-01-30T06:29:44;31.20;99.90
16114;DHT22;8161;-33.910;151.156;2024-01-30T06:32:11;30.80;99.90
16114;DHT22;8161;-33.910;151.156;2024-01-30T06:34:38;30.50;99.90
16114;DHT22;8161;-33.910;151.156;2024-01-30T06:37:06;30.20;99.90
16114;DHT22;8161;-33.910;151.156;2024-01-30T06:39:33;29.90;99.90
16114;DHT22;8161;-33.910;151.156;2024-01-30T06:42:00;29.70;99.90
16114;DHT22;8161;-33.910;151.156;2024-01-30T06:44:28;29.70;99.90
16114;DHT22;8161;-33.910;151.156;2024-01-30T06:46:55;29.60;99.90
16114;DHT22;8161;-33.910;151.156;2024-01-30T06:49:22;29.50;99.90
16114;DHT22;8161;-33.910;151.156;2024-01-30T06:51:49;29.20;99.90
16114;DHT22;8161;-33.910;151.156;2024-01-30T06:54:17;29.10;99.90
16114;DHT22;8161;-33.910;151.156;2024-01-30T06:56:44;29.20;99.90
16114;DHT22;8161;-33.910;151.156;2024-01-30T06:59:11;29.40;99.90
16114;DHT22;8161;-33.910;151.156;2024-01-30T07:01:38;28.50;99.90
16114;DHT22;8161;-33.910;151.156;2024-01-30T07:04:06;28.90;99.90
16114;DHT22;8161;-33.910;151.156;2024-01-30T07:06:33;28.70;99.90
16114;DHT22;8161;-33.910;151.156;2024-01-30T07:09:00;28.70;99.90
16114;DHT22;8161;-33.910;151.156;2024-01-30T07:11:27;28.40;99.90
16114;DHT22;8161;-33.910;151.156;2024-01-30T07:16:22;28.40;99.90
16114;DHT22;8161;-33.910;151.156;2024-01-30T07:18:49;28.40;99.90
16114;DHT22;8161;-33.910;151.156;2024-01-30T07:21:17;28.50;99.90
16114;DHT22;8161;-33.910;151.156;2024-01-30T07:23:44;28.10;99.90
16114;DHT22;8161;-33.910;151.156;2024-01-30T07:26:11;28.10;99.90
16114;DHT22;8161;-33.910;151.156;2024-01-30T07:28:39;27.90;99.90
16114;DHT22;8161;-33.910;151.156;2024-01-30T07:31:06;27.70;99.90
16114;DHT22;8161;-33.910;151.156;2024-01-30T07:33:33;27.60;99.90
16114;DHT22;8161;-33.910;151.156;2024-01-30T07:36:00;27.50;99.90
16114;DHT22;8161;-33.910;151.156;2024-01-30T07:38:28;27.40;99.90
16114;DHT22;8161;-33.910;151.156;2024-01-30T07:40:55;27.30;99.90
16114;DHT22;8161;-33.910;151.156;2024-01-30T07:43:23;27.20;99.90
16114;DHT22;8161;-33.910;151.156;2024-01-30T07:45:50;27.30;99.90
16114;DHT22;8161;-33.910;151.156;2024-01-30T07:48:18;27.50;99.90
16114;DHT22;8161;-33.910;151.156;2024-01-30T07:50:45;27.40;99.90
16114;DHT22;8161;-33.910;151.156;2024-01-30T07:53:12;27.50;99.90
16114;DHT22;8161;-33.910;151.156;2024-01-30T07:55:40;27.40;99.90
16114;DHT22;8161;-33.910;151.156;2024-01-30T07:58:07;27.30;99.90
16114;DHT22;8161;-33.910;151.156;2024-01-30T08:00:35;27.30;99.90
16114;DHT22;8161;-33.910;151.156;2024-01-30T08:03:03;26.80;99.90
16114;DHT22;8161;-33.910;151.156;2024-01-30T08:05:31;27.20;99.90
16114;DHT22;8161;-33.910;151.156;2024-01-30T08:07:58;27.10;99.90
16114;DHT22;8161;-33.910;151.156;2024-01-30T08:10:25;27.20;99.90
16114;DHT22;8161;-33.910;151.156;2024-01-30T08:12:53;27.00;99.90
16114;DHT22;8161;-33.910;151.156;2024-01-30T08:15:20;26.90;99.90
16114;DHT22;8161;-33.910;151.156;2024-01-30T08:17:47;26.80;99.90
16114;DHT22;8161;-33.910;151.156;2024-01-30T08:20:14;26.90;99.90
16114;DHT22;8161;-33.910;151.156;2024-01-30T08:22:42;26.90;99.90
16114;DHT22;8161;-33.910;151.156;2024-01-30T08:25:10;26.80;99.90
16114;DHT22;8161;-33.910;151.156;2024-01-30T08:27:38;27.00;99.90
16114;DHT22;8161;-33.910;151.156;2024-01-30T08:30:07;26.80;99.90
16114;DHT22;8161;-33.910;151.156;2024-01-30T08:32:34;26.80;99.90
16114;DHT22;8161;-33.910;151.156;2024-01-30T08:35:01;26.80;99.90
16114;DHT22;8161;-33.910;151.156;2024-01-30T08:37:33;26.70;99.90
16114;DHT22;8161;-33.910;151.156;2024-01-30T08:40:00;26.80;99.90
16114;DHT22;8161;-33.910;151.156;2024-01-30T08:42:29;26.80;99.90
16114;DHT22;8161;-33.910;151.156;2024-01-30T08:44:56;26.70;99.90
16114;DHT22;8161;-33.910;151.156;2024-01-30T08:47:23;26.70;99.90
16114;DHT22;8161;-33.910;151.156;2024-01-30T08:49:51;26.70;99.90
16114;DHT22;8161;-33.910;151.156;2024-01-30T08:52:19;26.80;99.90
16114;DHT22;8161;-33.910;151.156;2024-01-30T08:54:46;26.70;99.90
16114;DHT22;8161;-33.910;151.156;2024-01-30T08:57:13;26.70;99.90
16114;DHT22;8161;-33.910;151.156;2024-01-30T08:59:40;26.70;99.90
16114;DHT22;8161;-33.910;151.156;2024-01-30T09:02:11;26.70;99.90
16114;DHT22;8161;-33.910;151.156;2024-01-30T09:04:39;26.60;99.90
16114;DHT22;8161;-33.910;151.156;2024-01-30T09:07:08;26.40;99.90
16114;DHT22;8161;-33.910;151.156;2024-01-30T09:09:37;26.60;99.90
16114;DHT22;8161;-33.910;151.156;2024-01-30T09:12:06;26.60;99.90
16114;DHT22;8161;-33.910;151.156;2024-01-30T09:14:37;26.50;99.90
16114;DHT22;8161;-33.910;151.156;2024-01-30T09:17:04;26.50;99.90
16114;DHT22;8161;-33.910;151.156;2024-01-30T09:19:31;26.40;99.90
16114;DHT22;8161;-33.910;151.156;2024-01-30T09:21:59;26.40;99.90
16114;DHT22;8161;-33.910;151.156;2024-01-30T09:24:27;26.40;99.90
16114;DHT22;8161;-33.910;151.156;2024-01-30T09:26:54;26.30;99.90
16114;DHT22;8161;-33.910;151.156;2024-01-30T09:29:22;26.30;99.90
16114;DHT22;8161;-33.910;151.156;2024-01-30T09:31:49;26.30;99.90
16114;DHT22;8161;-33.910;151.156;2024-01-30T09:34:16;26.30;99.90
16114;DHT22;8161;-33.910;151.156;2024-01-30T09:36:43;26.20;99.90
16114;DHT22;8161;-33.910;151.156;2024-01-30T09:39:11;26.20;99.90
16114;DHT22;8161;-33.910;151.156;2024-01-30T09:41:48;26.20;99.90
16114;DHT22;8161;-33.910;151.156;2024-01-30T09:44:20;26.20;99.90
16114;DHT22;8161;-33.910;151.156;2024-01-30T09:46:49;25.90;99.90
16114;DHT22;8161;-33.910;151.156;2024-01-30T09:49:17;26.10;99.90
16114;DHT22;8161;-33.910;151.156;2024-01-30T09:51:45;26.20;99.90
16114;DHT22;8161;-33.910;151.156;2024-01-30T09:54:14;26.20;99.90
16114;DHT22;8161;-33.910;151.156;2024-01-30T09:56:42;26.00;99.90
16114;DHT22;8161;-33.910;151.156;2024-01-30T09:59:10;26.10;99.90
16114;DHT22;8161;-33.910;151.156;2024-01-30T10:01:37;26.10;99.90
16114;DHT22;8161;-33.910;151.156;2024-01-30T10:04:08;26.10;99.90
16114;DHT22;8161;-33.910;151.156;2024-01-30T10:06:37;26.00;99.90
16114;DHT22;8161;-33.910;151.156;2024-01-30T10:09:04;26.00;99.90
16114;DHT22;8161;-33.910;151.156;2024-01-30T10:11:31;26.00;99.90
16114;DHT22;8161;-33.910;151.156;2024-01-30T10:13:59;26.00;99.90
16114;DHT22;8161;-33.910;151.156;2024-01-30T10:16:27;26.00;99.90
16114;DHT22;8161;-33.910;151.156;2024-01-30T10:18:54;26.10;99.90
16114;DHT22;8161;-33.910;151.156;2024-01-30T10:21:21;26.10;99.90
16114;DHT22;8161;-33.910;151.156;2024-01-30T10:23:50;26.00;99.90
16114;DHT22;8161;-33.910;151.156;2024-01-30T10:26:17;26.00;99.90
16114;DHT22;8161;-33.910;151.156;2024-01-30T10:28:44;26.00;99.90
16114;DHT22;8161;-33.910;151.156;2024-01-30T10:31:15;26.10;99.90
16114;DHT22;8161;-33.910;151.156;2024-01-30T10:33:44;26.10;99.90
16114;DHT22;8161;-33.910;151.156;2024-01-30T10:36:15;25.90;99.90
16114;DHT22;8161;-33.910;151.156;2024-01-30T10:38:44;26.00;99.90
16114;DHT22;8161;-33.910;151.156;2024-01-30T10:41:13;26.00;99.90
16114;DHT22;8161;-33.910;151.156;2024-01-30T10:43:42;26.10;99.90
16114;DHT22;8161;-33.910;151.156;2024-01-30T10:46:17;26.00;99.90
16114;DHT22;8161;-33.910;151.156;2024-01-30T10:48:58;26.00;99.90
16114;DHT22;8161;-33.910;151.156;2024-01-30T10:51:29;25.90;99.90
16114;DHT22;8161;-33.910;151.156;2024-01-30T10:53:58;25.90;99.90
16114;DHT22;8161;-33.910;151.156;2024-01-30T10:56:25;25.80;99.90
16114;DHT22;8161;-33.910;151.156;2024-01-30T10:58:54;25.90;99.90
16114;DHT22;8161;-33.910;151.156;2024-01-30T11:01:25;25.90;99.90
16114;DHT22;8161;-33.910;151.156;2024-01-30T11:03:53;25.80;99.90
16114;DHT22;8161;-33.910;151.156;2024-01-30T11:06:24;25.90;99.90
16114;DHT22;8161;-33.910;151.156;2024-01-30T11:09:04;25.80;99.90
16114;DHT22;8161;-33.910;151.156;2024-01-30T11:12:12;25.90;99.90
16114;DHT22;8161;-33.910;151.156;2024-01-30T11:14:39;25.90;99.90
16114;DHT22;8161;-33.910;151.156;2024-01-30T11:17:10;25.80;99.90
16114;DHT22;8161;-33.910;151.156;2024-01-30T11:19:39;25.80;99.90
16114;DHT22;8161;-33.910;151.156;2024-01-30T11:22:08;25.80;99.90
16114;DHT22;8161;-33.910;151.156;2024-01-30T11:24:42;25.80;99.90
16114;DHT22;8161;-33.910;151.156;2024-01-30T11:27:10;25.70;99.90
16114;DHT22;8161;-33.910;151.156;2024-01-30T11:29:37;25.70;99.90
16114;DHT22;8161;-33.910;151.156;2024-01-30T11:32:05;25.70;99.90
16114;DHT22;8161;-33.910;151.156;2024-01-30T11:34:33;25.70;99.90
16114;DHT22;8161;-33.910;151.156;2024-01-30T11:37:09;25.60;99.90
16114;DHT22;8161;-33.910;151.156;2024-01-30T11:39:38;25.60;99.90
16114;DHT22;8161;-33.910;151.156;2024-01-30T11:42:08;25.40;99.90
16114;DHT22;8161;-33.910;151.156;2024-01-30T11:44:35;25.60;99.90
16114;DHT22;8161;-33.910;151.156;2024-01-30T11:47:03;25.50;99.90
16114;DHT22;8161;-33.910;151.156;2024-01-30T11:49:30;25.50;99.90
16114;DHT22;8161;-33.910;151.156;2024-01-30T11:51:58;25.50;99.90
16114;DHT22;8161;-33.910;151.156;2024-01-30T11:54:25;25.50;99.90
16114;DHT22;8161;-33.910;151.156;2024-01-30T11:56:53;25.50;99.90
16114;DHT22;8161;-33.910;151.156;2024-01-30T11:59:20;25.40;99.90
16114;DHT22;8161;-33.910;151.156;2024-01-30T12:01:47;25.40;99.90
16114;DHT22;8161;-33.910;151.156;2024-01-30T12:04:15;25.40;99.90
16114;DHT22;8161;-33.910;151.156;2024-01-30T12:06:43;25.40;99.90
16114;DHT22;8161;-33.910;151.156;2024-01-30T12:09:10;25.40;99.90
16114;DHT22;8161;-33.910;151.156;2024-01-30T12:11:48;25.40;99.90
16114;DHT22;8161;-33.910;151.156;2024-01-30T12:14:17;25.40;99.90
16114;DHT22;8161;-33.910;151.156;2024-01-30T12:16:48;25.40;99.90
16114;DHT22;8161;-33.910;151.156;2024-01-30T12:19:27;25.40;99.90
16114;DHT22;8161;-33.910;151.156;2024-01-30T12:21:58;25.40;99.90
16114;DHT22;8161;-33.910;151.156;2024-01-30T12:24:29;25.40;99.90
16114;DHT22;8161;-33.910;151.156;2024-01-30T12:26:59;25.40;99.90
16114;DHT22;8161;-33.910;151.156;2024-01-30T12:29:27;25.40;99.90
16114;DHT22;8161;-33.910;151.156;2024-01-30T12:31:54;25.40;99.90
16114;DHT22;8161;-33.910;151.156;2024-01-30T12:34:21;25.30;99.90
16114;DHT22;8161;-33.910;151.156;2024-01-30T12:36:49;25.40;99.90
16114;DHT22;8161;-33.910;151.156;2024-01-30T12:39:16;25.20;99.90
16114;DHT22;8161;-33.910;151.156;2024-01-30T12:41:44;25.30;99.90
16114;DHT22;8161;-33.910;151.156;2024-01-30T12:44:13;25.30;99.90
16114;DHT22;8161;-33.910;151.156;2024-01-30T12:46:43;25.30;99.90
16114;DHT22;8161;-33.910;151.156;2024-01-30T12:49:10;25.30;99.90
16114;DHT22;8161;-33.910;151.156;2024-01-30T12:51:37;25.20;99.90
16114;DHT22;8161;-33.910;151.156;2024-01-30T12:54:06;25.30;99.90
16114;DHT22;8161;-33.910;151.156;2024-01-30T12:56:34;25.30;99.90
16114;DHT22;8161;-33.910;151.156;2024-01-30T12:59:01;25.70;99.90
16114;DHT22;8161;-33.910;151.156;2024-01-30T13:01:29;25.30;99.90
16114;DHT22;8161;-33.910;151.156;2024-01-30T13:03:56;25.30;99.90
16114;DHT22;8161;-33.910;151.156;2024-01-30T13:06:25;25.20;99.90
16114;DHT22;8161;-33.910;151.156;2024-01-30T13:08:52;25.20;99.90
16114;DHT22;8161;-33.910;151.156;2024-01-30T13:11:19;25.20;99.90
16114;DHT22;8161;-33.910;151.156;2024-01-30T13:13:47;25.20;99.90
16114;DHT22;8161;-33.910;151.156;2024-01-30T13:16:14;25.20;99.90
16114;DHT22;8161;-33.910;151.156;2024-01-30T13:18:41;25.20;99.90
16114;DHT22;8161;-33.910;151.156;2024-01-30T13:21:09;25.20;99.90
16114;DHT22;8161;-33.910;151.156;2024-01-30T13:23:36;25.30;99.90
16114;DHT22;8161;-33.910;151.156;2024-01-30T13:26:03;25.20;99.90
16114;DHT22;8161;-33.910;151.156;2024-01-30T13:28:31;25.20;99.90
16114;DHT22;8161;-33.910;151.156;2024-01-30T13:30:58;25.20;99.90
16114;DHT22;8161;-33.910;151.156;2024-01-30T13:33:26;25.20;99.90
16114;DHT22;8161;-33.910;151.156;2024-01-30T13:35:53;25.20;99.90
16114;DHT22;8161;-33.910;151.156;2024-01-30T13:38:20;25.20;99.90
16114;DHT22;8161;-33.910;151.156;2024-01-30T13:40:47;25.20;99.90
16114;DHT22;8161;-33.910;151.156;2024-01-30T13:43:15;25.20;99.90
16114;DHT22;8161;-33.910;151.156;2024-01-30T13:45:44;25.20;99.90
16114;DHT22;8161;-33.910;151.156;2024-01-30T13:48:12;25.20;99.90
16114;DHT22;8161;-33.910;151.156;2024-01-30T13:50:39;25.20;99.90
16114;DHT22;8161;-33.910;151.156;2024-01-30T13:53:07;25.20;99.90
16114;DHT22;8161;-33.910;151.156;2024-01-30T13:55:35;25.20;99.90
16114;DHT22;8161;-33.910;151.156;2024-01-30T13:58:02;25.10;99.90
16114;DHT22;8161;-33.910;151.156;2024-01-30T14:00:29;25.20;99.90
16114;DHT22;8161;-33.910;151.156;2024-01-30T14:02:56;25.20;99.90
16114;DHT22;8161;-33.910;151.156;2024-01-30T14:05:29;25.20;99.90
16114;DHT22;8161;-33.910;151.156;2024-01-30T14:07:58;25.20;99.90
16114;DHT22;8161;-33.910;151.156;2024-01-30T14:10:26;25.00;99.90
16114;DHT22;8161;-33.910;151.156;2024-01-30T14:12:53;25.10;99.90
16114;DHT22;8161;-33.910;151.156;2024-01-30T14:15:21;25.10;99.90
16114;DHT22;8161;-33.910;151.156;2024-01-30T14:17:48;25.10;99.90
16114;DHT22;8161;-33.910;151.156;2024-01-30T14:20:16;25.10;99.90
16114;DHT22;8161;-33.910;151.156;2024-01-30T14:22:43;25.20;99.90
16114;DHT22;8161;-33.910;151.156;2024-01-30T14:25:12;25.10;99.90
16114;DHT22;8161;-33.910;151.156;2024-01-30T14:27:40;25.10;99.90
16114;DHT22;8161;-33.910;151.156;2024-01-30T14:30:11;25.00;99.90
16114;DHT22;8161;-33.910;151.156;2024-01-30T14:32:38;25.20;99.90
16114;DHT22;8161;-33.910;151.156;2024-01-30T14:35:07;25.10;99.90
16114;DHT22;8161;-33.910;151.156;2024-01-30T14:37:35;25.10;99.90
16114;DHT22;8161;-33.910;151.156;2024-01-30T14:40:02;25.10;99.90
16114;DHT22;8161;-33.910;151.156;2024-01-30T14:42:30;25.10;99.90
16114;DHT22;8161;-33.910;151.156;2024-01-30T14:45:00;25.10;99.90
16114;DHT22;8161;-33.910;151.156;2024-01-30T14:47:27;25.00;99.90
16114;DHT22;8161;-33.910;151.156;2024-01-30T14:49:54;25.00;99.90
16114;DHT22;8161;-33.910;151.156;2024-01-30T14:52:22;25.00;99.90
16114;DHT22;8161;-33.910;151.156;2024-01-30T14:54:49;25.00;99.90
16114;DHT22;8161;-33.910;151.156;2024-01-30T14:57:16;25.00;99.90
16114;DHT22;8161;-33.910;151.156;2024-01-30T14:59:43;24.80;99.90
16114;DHT22;8161;-33.910;151.156;2024-01-30T15:02:11;24.80;99.90
16114;DHT22;8161;-33.910;151.156;2024-01-30T15:04:38;24.90;99.90
16114;DHT22;8161;-33.910;151.156;2024-01-30T15:07:05;24.90;99.90
16114;DHT22;8161;-33.910;151.156;2024-01-30T15:09:32;24.90;99.90
16114;DHT22;8161;-33.910;151.156;2024-01-30T15:12:00;24.90;99.90
16114;DHT22;8161;-33.910;151.156;2024-01-30T15:14:27;24.90;99.90